sensor_id;sensor_type;location;lat;lon;timestamp;P1;durP1;ratioP1;P2;durP2;ratioP2
20623;SDS011;10471;42.736;23.346;2022-10-04T00:00:57;5.00;;;2.87;;
20623;SDS011;10471;42.736;23.346;2022-10-04T00:03:11;8.47;;;3.00;;
20623;SDS011;10471;42.736;23.346;2022-10-04T00:05:47;4.07;;;3.10;;
20623;SDS011;10471;42.736;23.346;2022-10-04T00:08:48;3.50;;;2.77;;
20623;SDS011;10471;42.736;23.346;2022-10-04T00:13:38;5.67;;;2.90;;
20623;SDS011;10471;42.736;23.346;2022-10-04T00:16:05;5.17;;;2.60;;
20623;SDS011;10471;42.736;23.346;2022-10-04T00:18:39;4.07;;;2.80;;
20623;SDS011;10471;42.736;23.346;2022-10-04T00:21:09;4.63;;;3.20;;
20623;SDS011;10471;42.736;23.346;2022-10-04T00:26:00;5.37;;;3.03;;
20623;SDS011;10471;42.736;23.346;2022-10-04T00:31:11;4.23;;;3.20;;
20623;SDS011;10471;42.736;23.346;2022-10-04T00:41:41;6.73;;;2.90;;
20623;SDS011;10471;42.736;23.346;2022-10-04T00:46:39;3.67;;;2.80;;
20623;SDS011;10471;42.736;23.346;2022-10-04T00:49:07;4.00;;;2.70;;
20623;SDS011;10471;42.736;23.346;2022-10-04T00:51:43;4.57;;;3.03;;
20623;SDS011;10471;42.736;23.346;2022-10-04T00:59:37;4.67;;;2.90;;
20623;SDS011;10471;42.736;23.346;2022-10-04T01:02:13;5.10;;;2.90;;
20623;SDS011;10471;42.736;23.346;2022-10-04T01:07:08;6.07;;;2.60;;
20623;SDS011;10471;42.736;23.346;2022-10-04T01:09:42;3.87;;;2.30;;
20623;SDS011;10471;42.736;23.346;2022-10-04T01:15:06;4.30;;;2.93;;
20623;SDS011;10471;42.736;23.346;2022-10-04T01:18:13;3.47;;;2.53;;
20623;SDS011;10471;42.736;23.346;2022-10-04T01:20:52;4.70;;;2.50;;
20623;SDS011;10471;42.736;23.346;2022-10-04T01:23:43;3.53;;;2.60;;
20623;SDS011;10471;42.736;23.346;2022-10-04T01:29:06;3.03;;;2.50;;
20623;SDS011;10471;42.736;23.346;2022-10-04T01:31:33;3.80;;;2.10;;
20623;SDS011;10471;42.736;23.346;2022-10-04T01:34:02;2.47;;;2.20;;
20623;SDS011;10471;42.736;23.346;2022-10-04T01:36:29;4.83;;;2.33;;
20623;SDS011;10471;42.736;23.346;2022-10-04T01:38:55;6.30;;;2.10;;
20623;SDS011;10471;42.736;23.346;2022-10-04T01:41:23;3.73;;;2.10;;
20623;SDS011;10471;42.736;23.346;2022-10-04T01:43:57;3.40;;;2.30;;
20623;SDS011;10471;42.736;23.346;2022-10-04T01:46:32;3.83;;;2.40;;
20623;SDS011;10471;42.736;23.346;2022-10-04T01:49:02;3.53;;;2.37;;
20623;SDS011;10471;42.736;23.346;2022-10-04T01:51:33;3.73;;;2.40;;
20623;SDS011;10471;42.736;23.346;2022-10-04T01:54:06;4.03;;;2.40;;
20623;SDS011;10471;42.736;23.346;2022-10-04T01:56:43;2.80;;;2.30;;
20623;SDS011;10471;42.736;23.346;2022-10-04T01:59:23;4.33;;;2.50;;
20623;SDS011;10471;42.736;23.346;2022-10-04T02:02:01;4.00;;;2.20;;
20623;SDS011;10471;42.736;23.346;2022-10-04T02:04:49;2.80;;;2.20;;
20623;SDS011;10471;42.736;23.346;2022-10-04T02:07:18;4.40;;;2.17;;
20623;SDS011;10471;42.736;23.346;2022-10-04T02:09:46;2.50;;;2.20;;
20623;SDS011;10471;42.736;23.346;2022-10-04T02:12:15;2.77;;;2.40;;
20623;SDS011;10471;42.736;23.346;2022-10-04T02:14:44;3.63;;;2.30;;
20623;SDS011;10471;42.736;23.346;2022-10-04T02:17:28;2.30;;;2.10;;
20623;SDS011;10471;42.736;23.346;2022-10-04T02:19:57;3.97;;;2.10;;
20623;SDS011;10471;42.736;23.346;2022-10-04T02:22:25;3.90;;;2.40;;
20623;SDS011;10471;42.736;23.346;2022-10-04T02:24:52;2.73;;;2.40;;
20623;SDS011;10471;42.736;23.346;2022-10-04T02:27:24;7.37;;;2.50;;
20623;SDS011;10471;42.736;23.346;2022-10-04T02:29:58;5.23;;;2.60;;
20623;SDS011;10471;42.736;23.346;2022-10-04T02:32:24;5.70;;;2.33;;
20623;SDS011;10471;42.736;23.346;2022-10-04T02:35:09;3.20;;;2.73;;
20623;SDS011;10471;42.736;23.346;2022-10-04T02:37:35;3.73;;;2.63;;
20623;SDS011;10471;42.736;23.346;2022-10-04T02:40:05;7.07;;;2.60;;
20623;SDS011;10471;42.736;23.346;2022-10-04T02:43:20;2.90;;;2.13;;
20623;SDS011;10471;42.736;23.346;2022-10-04T02:45:38;5.67;;;2.77;;
20623;SDS011;10471;42.736;23.346;2022-10-04T02:56:39;3.77;;;2.73;;
20623;SDS011;10471;42.736;23.346;2022-10-04T02:59:06;4.23;;;2.37;;
20623;SDS011;10471;42.736;23.346;2022-10-04T03:01:44;5.43;;;2.90;;
20623;SDS011;10471;42.736;23.346;2022-10-04T03:04:13;4.17;;;2.60;;
20623;SDS011;10471;42.736;23.346;2022-10-04T03:06:43;4.97;;;2.60;;
20623;SDS011;10471;42.736;23.346;2022-10-04T03:09:10;7.47;;;2.87;;
20623;SDS011;10471;42.736;23.346;2022-10-04T03:11:37;3.63;;;2.70;;
20623;SDS011;10471;42.736;23.346;2022-10-04T03:14:17;7.03;;;2.70;;
20623;SDS011;10471;42.736;23.346;2022-10-04T03:16:46;7.27;;;2.70;;
20623;SDS011;10471;42.736;23.346;2022-10-04T03:19:17;4.73;;;3.20;;
20623;SDS011;10471;42.736;23.346;2022-10-04T03:21:47;7.53;;;3.00;;
20623;SDS011;10471;42.736;23.346;2022-10-04T03:24:17;6.83;;;3.07;;
20623;SDS011;10471;42.736;23.346;2022-10-04T03:26:52;3.97;;;3.00;;
20623;SDS011;10471;42.736;23.346;2022-10-04T03:29:21;3.67;;;3.00;;
20623;SDS011;10471;42.736;23.346;2022-10-04T03:31:49;4.33;;;2.93;;
20623;SDS011;10471;42.736;23.346;2022-10-04T03:34:17;4.30;;;3.10;;
20623;SDS011;10471;42.736;23.346;2022-10-04T03:36:47;4.47;;;3.00;;
20623;SDS011;10471;42.736;23.346;2022-10-04T03:39:28;4.67;;;2.80;;
20623;SDS011;10471;42.736;23.346;2022-10-04T03:41:57;11.27;;;3.40;;
20623;SDS011;10471;42.736;23.346;2022-10-04T03:44:26;3.73;;;3.33;;
20623;SDS011;10471;42.736;23.346;2022-10-04T03:46:52;3.67;;;3.23;;
20623;SDS011;10471;42.736;23.346;2022-10-04T03:49:24;4.63;;;3.30;;
20623;SDS011;10471;42.736;23.346;2022-10-04T03:51:56;4.27;;;3.10;;
20623;SDS011;10471;42.736;23.346;2022-10-04T03:54:23;4.57;;;3.20;;
20623;SDS011;10471;42.736;23.346;2022-10-04T03:56:52;7.20;;;3.23;;
20623;SDS011;10471;42.736;23.346;2022-10-04T03:59:21;5.47;;;3.30;;
20623;SDS011;10471;42.736;23.346;2022-10-04T04:02:10;5.60;;;3.27;;
20623;SDS011;10471;42.736;23.346;2022-10-04T04:12:43;5.43;;;3.30;;
20623;SDS011;10471;42.736;23.346;2022-10-04T04:15:16;7.00;;;3.27;;
20623;SDS011;10471;42.736;23.346;2022-10-04T04:18:25;5.70;;;3.30;;
20623;SDS011;10471;42.736;23.346;2022-10-04T04:20:38;5.00;;;3.53;;
20623;SDS011;10471;42.736;23.346;2022-10-04T04:25:36;5.40;;;3.57;;
20623;SDS011;10471;42.736;23.346;2022-10-04T04:28:11;8.43;;;3.37;;
20623;SDS011;10471;42.736;23.346;2022-10-04T04:30:38;5.90;;;3.93;;
20623;SDS011;10471;42.736;23.346;2022-10-04T04:33:08;8.90;;;3.50;;
20623;SDS011;10471;42.736;23.346;2022-10-04T04:35:55;5.10;;;3.87;;
20623;SDS011;10471;42.736;23.346;2022-10-04T04:38:28;5.27;;;3.47;;
20623;SDS011;10471;42.736;23.346;2022-10-04T04:40:54;9.70;;;3.90;;
20623;SDS011;10471;42.736;23.346;2022-10-04T04:43:20;6.47;;;3.30;;
20623;SDS011;10471;42.736;23.346;2022-10-04T04:45:49;6.53;;;3.80;;
20623;SDS011;10471;42.736;23.346;2022-10-04T04:48:16;11.70;;;4.50;;
20623;SDS011;10471;42.736;23.346;2022-10-04T04:50:53;5.27;;;3.90;;
20623;SDS011;10471;42.736;23.346;2022-10-04T04:53:23;7.13;;;4.17;;
20623;SDS011;10471;42.736;23.346;2022-10-04T04:58:31;4.67;;;3.80;;
20623;SDS011;10471;42.736;23.346;2022-10-04T05:01:04;8.17;;;4.20;;
20623;SDS011;10471;42.736;23.346;2022-10-04T05:03:30;6.20;;;3.70;;
20623;SDS011;10471;42.736;23.346;2022-10-04T05:05:57;5.67;;;3.97;;
20623;SDS011;10471;42.736;23.346;2022-10-04T05:08:27;8.13;;;4.00;;
20623;SDS011;10471;42.736;23.346;2022-10-04T05:13:22;5.63;;;3.70;;
20623;SDS011;10471;42.736;23.346;2022-10-04T05:15:55;5.83;;;3.60;;
20623;SDS011;10471;42.736;23.346;2022-10-04T05:20:52;4.40;;;3.67;;
20623;SDS011;10471;42.736;23.346;2022-10-04T05:23:19;5.80;;;3.77;;
20623;SDS011;10471;42.736;23.346;2022-10-04T05:25:45;5.87;;;3.93;;
20623;SDS011;10471;42.736;23.346;2022-10-04T05:28:11;4.17;;;3.50;;
20623;SDS011;10471;42.736;23.346;2022-10-04T05:33:50;5.93;;;3.90;;
20623;SDS011;10471;42.736;23.346;2022-10-04T05:39:41;7.40;;;3.70;;
20623;SDS011;10471;42.736;23.346;2022-10-04T05:41:48;6.73;;;3.93;;
20623;SDS011;10471;42.736;23.346;2022-10-04T05:47:10;6.10;;;3.60;;
20623;SDS011;10471;42.736;23.346;2022-10-04T05:49:42;9.57;;;3.77;;
20623;SDS011;10471;42.736;23.346;2022-10-04T05:52:29;3.57;;;3.23;;
20623;SDS011;10471;42.736;23.346;2022-10-04T05:57:46;6.33;;;3.20;;
20623;SDS011;10471;42.736;23.346;2022-10-04T06:00:38;5.30;;;3.57;;
20623;SDS011;10471;42.736;23.346;2022-10-04T06:19:25;4.70;;;3.20;;
20623;SDS011;10471;42.736;23.346;2022-10-04T06:22:15;4.27;;;3.40;;
20623;SDS011;10471;42.736;23.346;2022-10-04T06:27:26;9.03;;;3.40;;
20623;SDS011;10471;42.736;23.346;2022-10-04T06:30:04;5.30;;;3.00;;
20623;SDS011;10471;42.736;23.346;2022-10-04T06:46:15;4.40;;;2.90;;
20623;SDS011;10471;42.736;23.346;2022-10-04T07:02:33;4.30;;;2.90;;
20623;SDS011;10471;42.736;23.346;2022-10-04T07:05:01;3.97;;;2.90;;
20623;SDS011;10471;42.736;23.346;2022-10-04T07:07:33;4.37;;;2.43;;
20623;SDS011;10471;42.736;23.346;2022-10-04T07:12:43;7.00;;;3.17;;
20623;SDS011;10471;42.736;23.346;2022-10-04T07:15:22;3.30;;;2.50;;
20623;SDS011;10471;42.736;23.346;2022-10-04T07:17:52;2.97;;;2.53;;
20623;SDS011;10471;42.736;23.346;2022-10-04T07:20:22;3.57;;;2.97;;
20623;SDS011;10471;42.736;23.346;2022-10-04T07:22:55;3.07;;;2.63;;
20623;SDS011;10471;42.736;23.346;2022-10-04T07:25:26;4.80;;;2.67;;
20623;SDS011;10471;42.736;23.346;2022-10-04T07:27:59;6.37;;;3.60;;
20623;SDS011;10471;42.736;23.346;2022-10-04T07:31:03;2.97;;;2.70;;
20623;SDS011;10471;42.736;23.346;2022-10-04T07:33:40;4.70;;;3.07;;
20623;SDS011;10471;42.736;23.346;2022-10-04T07:36:12;10.87;;;3.77;;
20623;SDS011;10471;42.736;23.346;2022-10-04T07:38:47;3.57;;;3.20;;
20623;SDS011;10471;42.736;23.346;2022-10-04T07:41:30;4.80;;;3.23;;
20623;SDS011;10471;42.736;23.346;2022-10-04T07:43:59;5.93;;;3.30;;
20623;SDS011;10471;42.736;23.346;2022-10-04T07:49:18;4.00;;;2.83;;
20623;SDS011;10471;42.736;23.346;2022-10-04T07:56:49;4.40;;;3.40;;
20623;SDS011;10471;42.736;23.346;2022-10-04T08:02:20;7.53;;;4.00;;
20623;SDS011;10471;42.736;23.346;2022-10-04T08:04:59;4.20;;;3.10;;
20623;SDS011;10471;42.736;23.346;2022-10-04T08:15:37;7.30;;;3.10;;
20623;SDS011;10471;42.736;23.346;2022-10-04T08:20:58;5.30;;;3.00;;
20623;SDS011;10471;42.736;23.346;2022-10-04T08:37:27;3.10;;;2.40;;
20623;SDS011;10471;42.736;23.346;2022-10-04T08:57:38;2.60;;;2.00;;
20623;SDS011;10471;42.736;23.346;2022-10-04T09:06:08;5.23;;;2.27;;
20623;SDS011;10471;42.736;23.346;2022-10-04T09:20:00;4.47;;;2.00;;
20623;SDS011;10471;42.736;23.346;2022-10-04T09:25:38;2.60;;;2.10;;
20623;SDS011;10471;42.736;23.346;2022-10-04T09:36:21;4.10;;;2.17;;
20623;SDS011;10471;42.736;23.346;2022-10-04T09:53:42;3.53;;;2.47;;
20623;SDS011;10471;42.736;23.346;2022-10-04T10:12:27;4.40;;;2.50;;
20623;SDS011;10471;42.736;23.346;2022-10-04T10:18:25;2.60;;;2.40;;
20623;SDS011;10471;42.736;23.346;2022-10-04T10:46:15;2.40;;;2.20;;
20623;SDS011;10471;42.736;23.346;2022-10-04T11:16:49;3.00;;;2.40;;
20623;SDS011;10471;42.736;23.346;2022-10-04T11:28:11;3.97;;;2.40;;
20623;SDS011;10471;42.736;23.346;2022-10-04T11:44:33;3.13;;;2.40;;
20623;SDS011;10471;42.736;23.346;2022-10-04T11:49:53;4.73;;;2.53;;
20623;SDS011;10471;42.736;23.346;2022-10-04T12:06:43;3.53;;;2.40;;
20623;SDS011;10471;42.736;23.346;2022-10-04T12:09:23;3.13;;;2.47;;
20623;SDS011;10471;42.736;23.346;2022-10-04T12:15:13;3.00;;;1.97;;
20623;SDS011;10471;42.736;23.346;2022-10-04T12:31:33;5.30;;;2.30;;
20623;SDS011;10471;42.736;23.346;2022-10-04T12:34:14;3.47;;;2.30;;
20623;SDS011;10471;42.736;23.346;2022-10-04T12:43:02;3.10;;;2.70;;
20623;SDS011;10471;42.736;23.346;2022-10-04T12:48:35;6.37;;;2.20;;
20623;SDS011;10471;42.736;23.346;2022-10-04T12:51:06;3.10;;;2.80;;
20623;SDS011;10471;42.736;23.346;2022-10-04T12:56:28;3.50;;;2.70;;
20623;SDS011;10471;42.736;23.346;2022-10-04T13:06:52;4.67;;;2.50;;
20623;SDS011;10471;42.736;23.346;2022-10-04T13:12:59;4.03;;;2.83;;
20623;SDS011;10471;42.736;23.346;2022-10-04T13:15:26;2.77;;;2.57;;
20623;SDS011;10471;42.736;23.346;2022-10-04T13:18:08;2.77;;;2.57;;
20623;SDS011;10471;42.736;23.346;2022-10-04T13:29:13;3.57;;;3.20;;
20623;SDS011;10471;42.736;23.346;2022-10-04T13:54:55;3.27;;;2.90;;
20623;SDS011;10471;42.736;23.346;2022-10-04T13:57:49;4.53;;;2.97;;
20623;SDS011;10471;42.736;23.346;2022-10-04T14:00:35;5.87;;;3.17;;
20623;SDS011;10471;42.736;23.346;2022-10-04T14:52:53;4.03;;;3.00;;
20623;SDS011;10471;42.736;23.346;2022-10-04T14:55:57;3.93;;;3.47;;
20623;SDS011;10471;42.736;23.346;2022-10-04T15:01:23;3.73;;;3.43;;
20623;SDS011;10471;42.736;23.346;2022-10-04T15:03:59;4.63;;;3.20;;
20623;SDS011;10471;42.736;23.346;2022-10-04T15:06:42;5.00;;;3.73;;
20623;SDS011;10471;42.736;23.346;2022-10-04T15:11:55;3.93;;;3.30;;
20623;SDS011;10471;42.736;23.346;2022-10-04T15:14:35;5.30;;;3.80;;
20623;SDS011;10471;42.736;23.346;2022-10-04T15:17:10;3.83;;;3.10;;
20623;SDS011;10471;42.736;23.346;2022-10-04T15:19:59;4.43;;;3.03;;
20623;SDS011;10471;42.736;23.346;2022-10-04T15:22:37;5.07;;;3.60;;
20623;SDS011;10471;42.736;23.346;2022-10-04T15:33:34;6.53;;;4.07;;
20623;SDS011;10471;42.736;23.346;2022-10-04T15:38:56;4.97;;;3.70;;
20623;SDS011;10471;42.736;23.346;2022-10-04T15:44:27;7.17;;;3.63;;
20623;SDS011;10471;42.736;23.346;2022-10-04T15:58:07;9.30;;;4.83;;
20623;SDS011;10471;42.736;23.346;2022-10-04T16:03:51;7.60;;;5.10;;
20623;SDS011;10471;42.736;23.346;2022-10-04T16:06:31;11.07;;;6.67;;
20623;SDS011;10471;42.736;23.346;2022-10-04T16:22:30;7.00;;;4.27;;
20623;SDS011;10471;42.736;23.346;2022-10-04T16:24:58;7.50;;;4.40;;
20623;SDS011;10471;42.736;23.346;2022-10-04T16:30:14;6.77;;;4.07;;
20623;SDS011;10471;42.736;23.346;2022-10-04T16:38:27;5.27;;;4.20;;
20623;SDS011;10471;42.736;23.346;2022-10-04T16:41:04;5.80;;;4.97;;
20623;SDS011;10471;42.736;23.346;2022-10-04T16:43:38;8.37;;;4.80;;
20623;SDS011;10471;42.736;23.346;2022-10-04T16:46:18;7.37;;;4.90;;
20623;SDS011;10471;42.736;23.346;2022-10-04T16:48:52;5.43;;;4.53;;
20623;SDS011;10471;42.736;23.346;2022-10-04T16:57:21;5.67;;;4.90;;
20623;SDS011;10471;42.736;23.346;2022-10-04T16:59:57;7.50;;;5.30;;
20623;SDS011;10471;42.736;23.346;2022-10-04T17:03:09;8.23;;;5.17;;
20623;SDS011;10471;42.736;23.346;2022-10-04T17:06:22;11.27;;;5.50;;
20623;SDS011;10471;42.736;23.346;2022-10-04T17:09:06;5.47;;;4.83;;
20623;SDS011;10471;42.736;23.346;2022-10-04T17:16:59;10.23;;;5.37;;
20623;SDS011;10471;42.736;23.346;2022-10-04T17:19:33;6.87;;;5.53;;
20623;SDS011;10471;42.736;23.346;2022-10-04T17:22:50;8.90;;;5.40;;
20623;SDS011;10471;42.736;23.346;2022-10-04T17:25:13;7.10;;;5.30;;
20623;SDS011;10471;42.736;23.346;2022-10-04T17:27:49;7.10;;;4.77;;
20623;SDS011;10471;42.736;23.346;2022-10-04T17:38:12;7.93;;;5.47;;
20623;SDS011;10471;42.736;23.346;2022-10-04T17:41:04;9.03;;;6.23;;
20623;SDS011;10471;42.736;23.346;2022-10-04T17:46:19;9.67;;;5.80;;
20623;SDS011;10471;42.736;23.346;2022-10-04T17:48:58;8.00;;;5.80;;
20623;SDS011;10471;42.736;23.346;2022-10-04T17:51:49;8.17;;;6.37;;
20623;SDS011;10471;42.736;23.346;2022-10-04T17:57:28;12.43;;;6.90;;
20623;SDS011;10471;42.736;23.346;2022-10-04T18:03:00;8.43;;;6.40;;
20623;SDS011;10471;42.736;23.346;2022-10-04T18:10:50;8.20;;;6.17;;
20623;SDS011;10471;42.736;23.346;2022-10-04T18:13:39;9.60;;;6.47;;
20623;SDS011;10471;42.736;23.346;2022-10-04T18:16:25;9.40;;;6.30;;
20623;SDS011;10471;42.736;23.346;2022-10-04T18:24:41;8.80;;;6.20;;
20623;SDS011;10471;42.736;23.346;2022-10-04T18:27:18;8.47;;;6.47;;
20623;SDS011;10471;42.736;23.346;2022-10-04T18:32:46;9.63;;;6.93;;
20623;SDS011;10471;42.736;23.346;2022-10-04T18:38:16;8.40;;;5.90;;
20623;SDS011;10471;42.736;23.346;2022-10-04T18:41:14;10.03;;;6.43;;
20623;SDS011;10471;42.736;23.346;2022-10-04T18:43:39;7.60;;;5.83;;
20623;SDS011;10471;42.736;23.346;2022-10-04T18:46:17;9.00;;;5.57;;
20623;SDS011;10471;42.736;23.346;2022-10-04T18:51:24;9.40;;;6.47;;
20623;SDS011;10471;42.736;23.346;2022-10-04T18:56:21;10.43;;;6.97;;
20623;SDS011;10471;42.736;23.346;2022-10-04T19:04:43;12.67;;;8.57;;
20623;SDS011;10471;42.736;23.346;2022-10-04T19:12:22;16.10;;;9.00;;
20623;SDS011;10471;42.736;23.346;2022-10-04T19:15:06;13.97;;;8.70;;
20623;SDS011;10471;42.736;23.346;2022-10-04T19:17:37;15.57;;;9.00;;
20623;SDS011;10471;42.736;23.346;2022-10-04T19:20:13;11.37;;;7.97;;
20623;SDS011;10471;42.736;23.346;2022-10-04T19:22:56;14.43;;;10.53;;
20623;SDS011;10471;42.736;23.346;2022-10-04T19:25:39;12.70;;;9.17;;
20623;SDS011;10471;42.736;23.346;2022-10-04T19:28:20;15.17;;;9.50;;
20623;SDS011;10471;42.736;23.346;2022-10-04T20:00:41;10.13;;;8.80;;
20623;SDS011;10471;42.736;23.346;2022-10-04T20:03:08;14.03;;;10.63;;
20623;SDS011;10471;42.736;23.346;2022-10-04T20:05:43;15.33;;;10.73;;
20623;SDS011;10471;42.736;23.346;2022-10-04T20:08:15;15.97;;;10.93;;
20623;SDS011;10471;42.736;23.346;2022-10-04T20:11:20;33.00;;;20.77;;
20623;SDS011;10471;42.736;23.346;2022-10-04T20:32:01;15.57;;;11.50;;
20623;SDS011;10471;42.736;23.346;2022-10-04T20:34:49;42.60;;;26.80;;
20623;SDS011;10471;42.736;23.346;2022-10-04T20:37:13;24.83;;;17.30;;
20623;SDS011;10471;42.736;23.346;2022-10-04T20:47:33;14.80;;;11.27;;
20623;SDS011;10471;42.736;23.346;2022-10-04T20:50:24;18.43;;;12.43;;
20623;SDS011;10471;42.736;23.346;2022-10-04T20:52:58;19.90;;;13.83;;
20623;SDS011;10471;42.736;23.346;2022-10-04T20:55:29;26.97;;;15.73;;
20623;SDS011;10471;42.736;23.346;2022-10-04T20:58:00;25.23;;;15.93;;
20623;SDS011;10471;42.736;23.346;2022-10-04T21:00:55;31.67;;;20.30;;
20623;SDS011;10471;42.736;23.346;2022-10-04T21:03:22;24.87;;;18.17;;
20623;SDS011;10471;42.736;23.346;2022-10-04T21:06:01;23.60;;;17.80;;
20623;SDS011;10471;42.736;23.346;2022-10-04T21:08:29;36.60;;;28.47;;
20623;SDS011;10471;42.736;23.346;2022-10-04T21:16:32;23.43;;;16.03;;
20623;SDS011;10471;42.736;23.346;2022-10-04T21:30:02;20.50;;;13.23;;
20623;SDS011;10471;42.736;23.346;2022-10-04T21:32:32;18.17;;;13.17;;
20623;SDS011;10471;42.736;23.346;2022-10-04T21:34:59;21.17;;;13.87;;
20623;SDS011;10471;42.736;23.346;2022-10-04T21:37:26;17.60;;;12.63;;
20623;SDS011;10471;42.736;23.346;2022-10-04T21:39:51;18.60;;;12.73;;
20623;SDS011;10471;42.736;23.346;2022-10-04T21:42:17;19.07;;;12.77;;
20623;SDS011;10471;42.736;23.346;2022-10-04T21:44:42;18.37;;;13.50;;
20623;SDS011;10471;42.736;23.346;2022-10-04T21:47:08;20.43;;;13.10;;
20623;SDS011;10471;42.736;23.346;2022-10-04T21:49:34;20.10;;;13.60;;
20623;SDS011;10471;42.736;23.346;2022-10-04T21:51:59;18.70;;;13.30;;
20623;SDS011;10471;42.736;23.346;2022-10-04T21:54:25;20.53;;;13.30;;
20623;SDS011;10471;42.736;23.346;2022-10-04T21:56:50;20.90;;;13.87;;
20623;SDS011;10471;42.736;23.346;2022-10-04T21:59:17;19.23;;;13.67;;
20623;SDS011;10471;42.736;23.346;2022-10-04T22:01:43;21.83;;;14.63;;
20623;SDS011;10471;42.736;23.346;2022-10-04T22:04:08;20.13;;;13.37;;
20623;SDS011;10471;42.736;23.346;2022-10-04T22:06:33;18.80;;;13.03;;
20623;SDS011;10471;42.736;23.346;2022-10-04T22:08:59;22.37;;;15.27;;
20623;SDS011;10471;42.736;23.346;2022-10-04T22:11:24;19.60;;;13.83;;
20623;SDS011;10471;42.736;23.346;2022-10-04T22:13:49;24.50;;;14.23;;
20623;SDS011;10471;42.736;23.346;2022-10-04T22:16:15;21.03;;;13.93;;
20623;SDS011;10471;42.736;23.346;2022-10-04T22:18:40;20.03;;;14.07;;
20623;SDS011;10471;42.736;23.346;2022-10-04T22:21:06;22.07;;;13.50;;
20623;SDS011;10471;42.736;23.346;2022-10-04T22:23:35;20.53;;;13.77;;
20623;SDS011;10471;42.736;23.346;2022-10-04T22:26:05;17.37;;;12.43;;
20623;SDS011;10471;42.736;23.346;2022-10-04T22:28:35;17.80;;;13.20;;
20623;SDS011;10471;42.736;23.346;2022-10-04T22:31:12;23.23;;;14.80;;
20623;SDS011;10471;42.736;23.346;2022-10-04T22:33:39;18.43;;;14.40;;
20623;SDS011;10471;42.736;23.346;2022-10-04T22:36:22;20.17;;;12.67;;
20623;SDS011;10471;42.736;23.346;2022-10-04T22:38:57;17.60;;;13.00;;
20623;SDS011;10471;42.736;23.346;2022-10-04T22:41:44;17.07;;;12.83;;
20623;SDS011;10471;42.736;23.346;2022-10-04T22:46:52;18.40;;;13.50;;
20623;SDS011;10471;42.736;23.346;2022-10-04T22:49:20;21.73;;;13.70;;
20623;SDS011;10471;42.736;23.346;2022-10-04T22:51:48;18.90;;;12.30;;
20623;SDS011;10471;42.736;23.346;2022-10-04T22:54:17;19.47;;;14.47;;
20623;SDS011;10471;42.736;23.346;2022-10-04T22:56:44;20.67;;;13.20;;
20623;SDS011;10471;42.736;23.346;2022-10-04T22:59:11;21.53;;;14.73;;
20623;SDS011;10471;42.736;23.346;2022-10-04T23:01:38;21.60;;;14.37;;
20623;SDS011;10471;42.736;23.346;2022-10-04T23:06:58;22.37;;;16.03;;
20623;SDS011;10471;42.736;23.346;2022-10-04T23:09:23;25.30;;;15.50;;
20623;SDS011;10471;42.736;23.346;2022-10-04T23:11:49;20.00;;;15.07;;
20623;SDS011;10471;42.736;23.346;2022-10-04T23:14:14;22.30;;;15.90;;
20623;SDS011;10471;42.736;23.346;2022-10-04T23:16:40;20.73;;;15.77;;
20623;SDS011;10471;42.736;23.346;2022-10-04T23:19:10;21.67;;;14.90;;
20623;SDS011;10471;42.736;23.346;2022-10-04T23:21:38;22.53;;;14.67;;
20623;SDS011;10471;42.736;23.346;2022-10-04T23:24:14;18.97;;;14.50;;
20623;SDS011;10471;42.736;23.346;2022-10-04T23:26:43;16.53;;;13.33;;
20623;SDS011;10471;42.736;23.346;2022-10-04T23:29:17;18.77;;;13.57;;
20623;SDS011;10471;42.736;23.346;2022-10-04T23:31:47;22.00;;;14.43;;
20623;SDS011;10471;42.736;23.346;2022-10-04T23:34:35;19.47;;;14.23;;
20623;SDS011;10471;42.736;23.346;2022-10-04T23:37:00;18.33;;;12.67;;
20623;SDS011;10471;42.736;23.346;2022-10-04T23:39:30;18.37;;;13.57;;
20623;SDS011;10471;42.736;23.346;2022-10-04T23:41:58;20.87;;;13.67;;
20623;SDS011;10471;42.736;23.346;2022-10-04T23:44:44;23.07;;;15.40;;
20623;SDS011;10471;42.736;23.346;2022-10-04T23:47:16;29.63;;;19.03;;
20623;SDS011;10471;42.736;23.346;2022-10-04T23:49:44;21.67;;;14.63;;
20623;SDS011;10471;42.736;23.346;2022-10-04T23:54:46;24.73;;;14.73;;
20623;SDS011;10471;42.736;23.346;2022-10-04T23:57:16;23.20;;;16.33;;
20623;SDS011;10471;42.736;23.346;2022-10-04T23:59:53;26.97;;;16.23;;
